Time;durP1;ratioP1;P1;durP2;ratioP2;P2;SDS_P1;SDS_P2;PMS_P1;PMS_P2;Temp;Humidity;BMP_temperature;BMP_pressure;BME280_temperature;BME280_humidity;BME280_pressure;Samples;Min_cycle;Max_cycle;Signal;HPM_P1;HPM_P2
2022/06/05 00:01:21;;;;;;;5.57;4.80;;;13.30;1.00;;;13.32;61.61;101640.34;4973705;28;20538;-71
2022/06/05 00:04:03;;;;;;;6.73;4.07;;;13.30;1.00;;;13.22;62.14;101645.31;4973274;28;20830;-70
2022/06/05 00:06:40;;;;;;;5.67;5.07;;;13.20;1.00;;;13.11;62.49;101629.59;4965280;28;20447;-70
2022/06/05 00:09:32;;;;;;;9.00;5.70;;;13.20;1.00;;;13.21;62.45;101631.94;4968874;28;20470;-71
2022/06/05 00:12:09;;;;;;;6.80;4.70;;;13.20;1.00;;;13.13;62.44;101632.94;4961864;28;20471;-70
2022/06/05 00:14:39;;;;;;;7.40;4.60;;;13.10;1.00;;;12.97;63.16;101639.50;4966827;28;20825;-70
2022/06/05 00:17:14;;;;;;;6.90;5.43;;;13.00;1.00;;;12.83;63.43;101631.50;4972993;28;20443;-69
2022/06/05 00:19:48;;;;;;;4.30;3.90;;;12.90;1.00;;;12.78;63.96;101634.78;4973742;28;20548;-70
2022/06/05 00:22:18;;;;;;;6.03;4.37;;;12.80;1.00;;;12.88;63.70;101637.13;4957801;28;20435;-70
2022/06/05 00:24:48;;;;;;;6.90;6.00;;;12.80;1.00;;;12.75;64.12;101637.06;4964858;28;20447;-70
2022/06/05 00:27:28;;;;;;;8.83;5.70;;;12.80;1.00;;;12.63;64.42;101629.44;4970600;28;20602;-70
2022/06/05 00:30:11;;;;;;;6.20;4.47;;;12.70;1.00;;;12.61;64.91;101627.97;4974568;28;21084;-71
2022/06/05 00:32:47;;;;;;;9.87;5.57;;;12.70;1.00;;;12.57;64.92;101627.53;4976109;28;20633;-71
2022/06/05 00:35:21;;;;;;;5.00;4.50;;;12.60;1.00;;;12.51;65.15;101627.50;4975801;28;20509;-69
2022/06/05 00:38:02;;;;;;;7.90;6.33;;;12.50;1.00;;;12.43;65.36;101636.63;4971823;28;20778;-71
2022/06/05 00:40:48;;;;;;;6.63;4.50;;;12.50;1.00;;;12.38;65.71;101638.25;4973356;28;20454;-71
2022/06/05 00:43:23;;;;;;;5.50;4.70;;;12.40;1.00;;;12.40;65.73;101634.28;4972865;28;20437;-70
2022/06/05 00:45:54;;;;;;;6.13;5.53;;;12.40;1.00;;;12.32;66.11;101639.88;4972454;28;20442;-71
2022/06/05 00:48:24;;;;;;;8.57;5.60;;;12.40;1.00;;;12.25;66.28;101644.38;4973699;28;20533;-69
2022/06/05 00:50:55;;;;;;;7.93;5.53;;;12.30;1.00;;;12.28;66.33;101635.88;4971604;28;20462;-68
2022/06/05 00:53:24;;;;;;;4.47;3.80;;;12.30;1.00;;;12.13;66.52;101633.22;4961148;28;20462;-69
2022/06/05 00:55:54;;;;;;;6.47;5.23;;;12.20;1.00;;;12.07;67.16;101639.41;4972916;28;20508;-70
2022/06/05 00:58:23;;;;;;;6.67;5.83;;;12.10;1.00;;;12.06;67.23;101636.88;4963947;28;20478;-70
2022/06/05 01:00:56;;;;;;;9.10;6.23;;;12.10;1.00;;;11.83;67.80;101639.78;4972600;28;20462;-71
2022/06/05 01:03:26;;;;;;;6.13;4.03;;;12.00;1.00;;;11.69;68.14;101640.66;4962849;28;20436;-71
2022/06/05 01:05:55;;;;;;;6.20;5.63;;;11.90;1.00;;;11.69;68.55;101641.50;4972408;28;20454;-69
2022/06/05 01:08:25;;;;;;;6.80;5.10;;;11.80;1.00;;;11.80;68.69;101631.22;4967828;28;20473;-70
2022/06/05 01:11:10;;;;;;;5.80;5.30;;;11.80;1.00;;;11.77;68.65;101641.41;4967355;28;20475;-72
2022/06/05 01:13:56;;;;;;;5.97;4.83;;;11.80;1.00;;;11.73;69.05;101641.97;4972849;28;20454;-68
2022/06/05 01:16:33;;;;;;;8.93;6.70;;;11.80;1.00;;;11.77;68.96;101635.97;4967046;28;20438;-70
2022/06/05 01:19:27;;;;;;;6.20;5.20;;;11.80;1.00;;;11.82;69.19;101634.56;4970817;28;20466;-70
2022/06/05 01:22:51;;;;;;;8.07;5.80;;;11.80;1.00;;;11.80;69.66;101632.06;4972118;28;20525;-70
2022/06/05 01:26:16;;;;;;;8.13;6.33;;;11.80;1.00;;;11.76;69.72;101628.88;4941912;28;20455;-71
2022/06/05 01:28:55;;;;;;;9.30;6.80;;;11.80;1.00;;;11.61;70.34;101638.91;4932844;28;20455;-70
2022/06/05 01:31:33;;;;;;;6.60;5.77;;;11.70;1.00;;;11.47;70.79;101634.38;4966924;28;20502;-69
2022/06/05 01:34:21;;;;;;;7.00;6.30;;;11.60;1.00;;;11.44;71.33;101636.59;4972386;28;20837;-70
2022/06/05 01:37:00;;;;;;;11.47;7.73;;;11.60;1.00;;;11.46;71.65;101635.38;4970980;28;20537;-70
2022/06/05 01:39:37;;;;;;;8.00;7.20;;;11.50;1.00;;;11.46;71.73;101629.13;4963371;28;20891;-69
2022/06/05 01:42:14;;;;;;;10.13;6.93;;;11.50;1.00;;;11.36;72.12;101624.00;4967374;28;20541;-70
2022/06/05 01:44:49;;;;;;;11.60;6.30;;;11.40;1.00;;;11.37;72.18;101631.09;4972247;28;20450;-71
2022/06/05 01:47:23;;;;;;;18.57;8.83;;;11.40;1.00;;;11.40;72.26;101625.28;4968326;28;20814;-69
2022/06/05 01:49:56;;;;;;;9.97;8.30;;;11.40;1.00;;;11.48;72.11;101621.63;4972053;28;20471;-69
2022/06/05 01:52:32;;;;;;;8.80;6.77;;;11.40;1.00;;;11.42;72.47;101622.41;4971794;28;20609;-70
2022/06/05 01:55:06;;;;;;;11.77;7.60;;;11.40;1.00;;;11.33;72.56;101616.22;4966877;28;20455;-69
2022/06/05 01:57:38;;;;;;;10.27;7.10;;;11.40;1.00;;;11.39;72.82;101615.47;4964667;28;20835;-69
2022/06/05 02:00:14;;;;;;;10.77;8.10;;;11.40;1.00;;;11.28;73.22;101613.25;4971988;28;20502;-70
2022/06/05 02:02:49;;;;;;;10.13;7.47;;;11.30;1.00;;;11.31;73.55;101610.19;4971752;28;20199;-68
2022/06/05 02:05:26;;;;;;;11.67;8.13;;;11.30;1.00;;;11.32;73.65;101610.00;4971974;28;20269;-71
2022/06/05 02:08:03;;;;;;;9.23;7.97;;;11.30;1.00;;;11.31;73.57;101613.72;4972200;28;20502;-71
2022/06/05 02:10:40;;;;;;;10.23;7.70;;;11.30;1.00;;;11.22;74.12;101604.03;4956984;28;20235;-70
2022/06/05 02:13:11;;;;;;;10.20;7.95;;;11.30;1.00;;;11.26;74.38;101604.50;4972201;28;20502;-69
2022/06/05 02:15:40;;;;;;;10.38;7.70;;;11.20;1.00;;;11.15;74.37;101613.09;4963247;28;20199;-69
2022/06/05 02:18:09;;;;;;;11.48;8.27;;;11.20;1.00;;;11.15;74.83;101615.81;4966527;28;20566;-70
2022/06/05 02:20:38;;;;;;;16.00;10.07;;;11.20;3.90;;;11.11;75.09;101611.78;4971416;28;20367;-69
2022/06/05 02:23:15;;;;;;;11.68;8.48;;;11.20;7.80;;;11.08;75.43;101609.47;4965506;28;20932;-69
2022/06/05 02:25:45;;;;;;;12.83;9.03;;;11.10;19.90;;;11.12;75.47;101602.66;4970035;28;20202;-69
2022/06/05 02:28:21;;;;;;;10.25;7.80;;;11.10;21.60;;;11.19;74.94;101606.25;4967674;28;20473;-70
2022/06/05 02:31:04;;;;;;;15.25;9.20;;;11.20;18.20;;;11.16;75.25;101606.66;4971216;28;20341;-70
2022/06/05 02:33:45;;;;;;;14.40;9.23;;;11.10;15.60;;;11.13;75.23;101599.75;4965778;28;20287;-70
2022/06/05 02:36:25;;;;;;;10.45;9.00;;;11.10;15.10;;;11.01;75.39;101603.09;4972021;28;20553;-70
2022/06/05 02:39:30;;;;;;;16.07;8.77;;;11.10;15.30;;;10.95;75.58;101604.69;4968152;28;20675;-70
2022/06/05 02:42:13;;;;;;;12.77;8.80;;;11.00;23.80;;;10.75;76.47;101609.81;4962443;28;20778;-70
2022/06/05 02:44:55;;;;;;;14.80;8.73;;;10.90;44.90;;;10.70;76.74;101601.41;4951008;28;20308;-69
2022/06/05 02:47:40;;;;;;;13.63;9.77;;;10.70;86.10;;;10.59;76.88;101601.91;4962795;28;20195;-70
2022/06/05 02:50:17;;;;;;;10.68;8.02;;;10.70;99.90;;;10.56;77.32;101601.41;4972041;28;20215;-70
2022/06/05 02:52:47;;;;;;;9.52;7.97;;;10.70;99.90;;;10.57;77.57;101600.38;4959107;28;20566;-70
2022/06/05 02:55:20;;;;;;;12.50;8.30;;;10.60;99.90;;;10.57;77.48;101600.38;4960430;28;20215;-71
2022/06/05 02:57:49;;;;;;;10.75;8.15;;;10.60;99.90;;;10.70;77.24;101595.16;4971846;28;20203;-70
2022/06/05 03:00:24;;;;;;;11.70;8.43;;;10.60;99.90;;;10.59;77.38;101599.19;4971660;28;20222;-70
2022/06/05 03:05:41;;;;;;;13.13;9.30;;;10.60;99.90;;;10.55;77.76;101597.03;4967022;28;20195;-70
2022/06/05 03:08:14;;;;;;;8.90;7.40;;;10.60;99.90;;;10.46;77.92;101590.84;4964141;28;20197;-70
2022/06/05 03:10:44;;;;;;;16.67;9.85;;;10.50;99.90;;;10.55;77.83;101592.47;4974406;28;20231;-71
2022/06/05 03:13:14;;;;;;;17.77;8.52;;;10.60;99.90;;;10.63;77.61;101588.81;4972814;28;20203;-71
2022/06/05 03:15:45;;;;;;;12.48;8.35;;;10.60;99.90;;;10.66;77.36;101594.69;4964430;28;20657;-70
2022/06/05 03:18:14;;;;;;;11.80;7.97;;;10.60;99.90;;;10.64;77.31;101591.38;4966378;28;20199;-70
2022/06/05 03:20:43;;;;;;;9.93;8.25;;;10.60;99.90;;;10.66;76.99;101594.69;4969123;28;20253;-70
2022/06/05 03:23:13;;;;;;;14.02;9.40;;;10.60;99.90;;;10.62;77.16;101588.00;4974402;28;20200;-70
2022/06/05 03:25:44;;;;;;;18.17;9.82;;;10.60;99.90;;;10.65;77.05;101586.78;4970041;28;20200;-71
2022/06/05 03:28:12;;;;;;;16.05;10.30;;;10.60;99.90;;;10.58;77.05;101586.69;4969330;28;20195;-69
2022/06/05 03:30:44;;;;;;;13.35;9.18;;;10.50;99.90;;;10.53;77.58;101593.66;4974548;28;20226;-70
2022/06/05 03:33:13;;;;;;;15.40;9.35;;;10.50;99.90;;;10.67;77.76;101593.69;4974713;28;20723;-68
2022/06/05 03:35:45;;;;;;;13.85;8.70;;;10.60;99.90;;;10.98;77.35;101603.50;4970208;28;20269;-70
2022/06/05 03:38:16;;;;;;;15.65;7.95;;;10.70;99.90;;;12.71;71.72;101603.19;4974700;28;20206;-70
2022/06/05 03:40:46;;;;;;;14.27;8.57;;;11.20;99.90;;;14.83;63.69;101601.63;4974885;28;20298;-69
2022/06/05 03:43:16;;;;;;;13.97;9.53;;;12.30;1.00;;;15.92;59.78;101602.44;4974832;28;20935;-69
2022/06/05 03:45:47;;;;;;;15.47;8.70;;;13.20;1.00;;;17.15;55.93;101602.59;4971300;28;20525;-70
2022/06/05 03:48:16;;;;;;;10.83;8.03;;;14.20;1.00;;;18.02;53.17;101609.44;4970583;28;20509;-69
2022/06/05 03:50:45;;;;;;;13.57;7.97;;;14.90;1.00;;;18.52;51.44;101610.72;4966914;28;20885;-69
2022/06/05 03:53:14;;;;;;;10.10;8.27;;;15.70;1.00;;;18.98;50.23;101614.53;4973766;28;20453;-69
2022/06/05 03:55:43;;;;;;;15.03;8.10;;;16.10;1.00;;;19.25;49.37;101609.38;4971904;28;20485;-70
2022/06/05 03:58:12;;;;;;;9.90;8.13;;;16.20;1.00;;;19.36;49.15;101612.09;4973733;28;20534;-69
2022/06/05 04:00:43;;;;;;;10.00;6.70;;;16.20;1.00;;;19.69;48.20;101602.34;4973593;28;20889;-71
2022/06/05 04:03:13;;;;;;;11.23;8.70;;;16.70;1.00;;;19.65;48.01;101592.94;4972955;28;20474;-69
2022/06/05 04:05:45;;;;;;;8.57;6.93;;;17.10;1.00;;;19.41;48.33;101587.47;4973755;28;20439;-69
2022/06/05 04:08:16;;;;;;;10.93;7.80;;;17.60;1.00;;;19.07;49.21;101596.66;4973198;28;20446;-69
2022/06/05 04:10:45;;;;;;;9.13;6.80;;;17.20;1.00;;;19.53;47.66;101585.56;5006879;23;20502;-72
2022/06/05 04:13:15;;;;;;;9.50;6.60;;;17.30;1.00;;;19.96;46.53;101581.41;5017904;28;20462;-73
2022/06/05 04:15:44;;;;;;;10.67;8.00;;;17.60;1.00;;;19.91;47.15;101593.16;5008528;28;20472;-73
2022/06/05 04:18:14;;;;;;;11.17;7.77;;;17.50;1.00;;;20.25;46.29;101593.19;5008764;28;20863;-72
2022/06/05 04:20:43;;;;;;;8.20;6.90;;;17.70;1.00;;;20.25;46.07;101594.03;5003482;28;20473;-72
2022/06/05 04:23:12;;;;;;;10.30;9.10;;;18.00;1.00;;;20.10;46.62;101595.66;4998214;28;20475;-73
2022/06/05 04:25:43;;;;;;;10.70;6.50;;;17.80;1.00;;;20.14;46.54;101596.88;5000547;28;20846;-75
2022/06/05 04:28:12;;;;;;;8.13;6.80;;;18.10;1.00;;;20.83;45.14;101595.50;5006627;28;20416;-72
2022/06/05 04:30:42;;;;;;;8.33;6.97;;;17.60;1.00;;;21.64;43.91;101607.56;5009732;28;20519;-72
2022/06/05 04:33:11;;;;;;;8.57;7.23;;;17.90;1.00;;;21.90;42.91;101598.50;5010174;28;20440;-72
2022/06/05 04:35:41;;;;;;;10.30;7.57;;;18.00;1.00;;;22.23;42.24;101591.09;5009446;28;20477;-73
2022/06/05 04:38:11;;;;;;;8.87;6.57;;;18.30;1.00;;;22.15;42.01;101580.56;5004839;28;20547;-73
2022/06/05 04:40:40;;;;;;;9.30;6.60;;;18.60;1.00;;;22.16;41.73;101582.25;5009676;28;20932;-72
2022/06/05 04:43:09;;;;;;;8.70;6.93;;;19.10;1.00;;;21.95;42.20;101571.03;5007871;28;20647;-73
2022/06/05 04:45:39;;;;;;;7.27;6.00;;;19.50;1.00;;;22.29;41.46;101581.78;5004307;28;20482;-72
2022/06/05 04:48:10;;;;;;;10.20;6.90;;;19.40;1.00;;;22.09;41.42;101580.53;4988557;28;20451;-71
2022/06/05 04:50:40;;;;;;;7.10;5.43;;;19.40;1.00;;;21.96;41.54;101578.22;5010052;28;20469;-73
2022/06/05 04:53:10;;;;;;;9.97;6.87;;;19.30;1.00;;;21.50;42.58;101567.75;5009659;28;20419;-73
2022/06/05 04:55:39;;;;;;;9.30;6.80;;;19.40;1.00;;;21.73;42.00;101559.22;5009119;28;20996;-73
2022/06/05 04:58:08;;;;;;;6.93;6.20;;;19.40;1.00;;;21.24;43.17;101541.88;5008393;28;20420;-71
2022/06/05 05:00:37;;;;;;;9.87;7.37;;;19.30;1.00;;;21.81;42.20;101553.22;5007834;28;20447;-73
2022/06/05 05:03:06;;;;;;;8.73;6.93;;;19.20;1.00;;;20.51;44.63;101548.56;5009908;28;20499;-73
2022/06/05 05:05:36;;;;;;;8.93;7.23;;;19.20;1.00;;;20.70;44.74;101552.69;4993925;28;20437;-74
2022/06/05 05:08:07;;;;;;;12.00;8.27;;;18.70;1.00;;;21.06;44.40;101548.50;5010647;28;20442;-73
2022/06/05 05:10:37;;;;;;;8.57;7.07;;;18.80;1.00;;;21.45;43.30;101545.66;5010293;28;20486;-73
2022/06/05 05:13:06;;;;;;;9.47;6.80;;;19.20;1.00;;;21.94;42.44;101538.22;5007890;28;20475;-72
2022/06/05 05:15:35;;;;;;;10.20;7.40;;;19.00;1.00;;;21.57;43.00;101546.38;5010857;28;20488;-73
2022/06/05 05:18:04;;;;;;;8.73;7.53;;;19.00;1.00;;;22.46;41.96;101561.22;5010980;28;20421;-73
2022/06/05 05:20:33;;;;;;;10.80;7.30;;;19.60;1.00;;;22.54;41.54;101568.19;5009417;28;20408;-72
2022/06/05 05:23:02;;;;;;;9.40;6.50;;;19.20;1.00;;;23.12;40.35;101571.88;5010746;28;20832;-72
2022/06/05 05:25:33;;;;;;;7.20;6.47;;;20.20;1.00;;;22.79;40.39;101551.84;5011280;28;20460;-72
2022/06/05 05:28:02;;;;;;;10.37;7.50;;;20.10;1.00;;;23.09;40.68;101547.56;5010639;28;20552;-73
2022/06/05 05:30:30;;;;;;;8.00;6.40;;;20.60;1.00;;;23.15;40.61;101552.00;5007299;28;21031;-73
2022/06/05 05:32:59;;;;;;;7.80;7.00;;;20.50;1.00;;;20.76;44.42;101537.09;5008125;28;20437;-73
2022/06/05 05:35:29;;;;;;;8.93;7.50;;;20.20;1.00;;;18.28;50.42;101534.22;5010557;28;20481;-73
2022/06/05 05:37:58;;;;;;;7.33;6.07;;;18.60;1.00;;;16.59;55.19;101548.13;5010534;28;20961;-73
2022/06/05 05:43:16;;;;;;;9.07;7.23;;;16.40;1.00;;;15.31;59.54;101536.66;5002591;28;20416;-73
2022/06/05 05:45:45;;;;;;;8.10;7.10;;;15.70;1.00;;;15.15;60.50;101529.00;5010113;28;20535;-73
2022/06/05 05:48:14;;;;;;;9.20;7.10;;;15.30;1.00;;;15.18;60.54;101523.94;5003850;28;20955;-73
2022/06/05 05:50:45;;;;;;;10.87;7.40;;;15.20;1.00;;;15.14;60.81;101533.59;5010182;28;20512;-73
2022/06/05 05:53:14;;;;;;;7.60;6.63;;;15.10;1.00;;;15.09;61.14;101536.16;5016298;28;20441;-72
2022/06/05 05:55:43;;;;;;;11.40;7.00;;;15.10;1.00;;;15.25;60.89;101532.06;5020424;28;20468;-72
2022/06/05 05:58:13;;;;;;;7.80;5.83;;;15.10;1.00;;;15.37;60.90;101515.88;5017768;28;20521;-72
2022/06/05 06:00:42;;;;;;;8.17;6.70;;;15.20;1.00;;;15.59;60.45;101519.94;5014207;28;20535;-73
2022/06/05 06:03:11;;;;;;;8.70;6.23;;;15.30;1.00;;;15.88;59.75;101508.38;5013766;28;20484;-74
2022/06/05 06:05:40;;;;;;;8.73;6.60;;;15.50;1.00;;;15.96;59.32;101512.75;5017300;28;20511;-73
2022/06/05 06:08:09;;;;;;;8.03;6.60;;;15.80;1.00;;;16.15;58.86;101519.09;5116332;22;20542;-69
2022/06/05 06:10:38;;;;;;;10.80;7.30;;;15.90;1.00;;;16.31;58.70;101521.28;5019110;28;20453;-68
2022/06/05 06:13:07;;;;;;;6.97;6.27;;;16.10;1.00;;;16.27;58.39;101523.59;5012548;28;20429;-69
2022/06/05 06:15:37;;;;;;;6.90;6.03;;;16.20;1.00;;;16.28;58.31;101524.44;5020752;28;20464;-69
2022/06/05 06:18:07;;;;;;;7.43;6.50;;;16.20;1.00;;;16.43;58.44;101524.91;5012608;28;20898;-68
2022/06/05 06:20:35;;;;;;;7.90;5.57;;;16.20;1.00;;;16.67;57.55;101518.59;5031190;22;20850;-70
2022/06/05 06:23:05;;;;;;;8.33;6.20;;;16.40;1.00;;;16.77;57.69;101518.91;5018676;28;20463;-70
2022/06/05 06:25:34;;;;;;;8.87;6.60;;;16.50;1.00;;;16.87;56.97;101516.47;5034726;28;20962;-70
2022/06/05 06:28:03;;;;;;;8.37;6.10;;;16.60;1.00;;;16.97;56.98;101521.41;5036968;28;20447;-70
2022/06/05 06:30:34;;;;;;;8.73;6.90;;;16.80;1.00;;;17.29;56.25;101522.03;5029920;28;20887;-69
2022/06/05 06:33:05;;;;;;;7.87;5.63;;;16.90;1.00;;;17.37;55.61;101525.31;5011303;28;20524;-68
2022/06/05 06:35:39;;;;;;;7.57;6.53;;;17.20;1.00;;;17.60;55.24;101524.56;5012185;28;20487;-70
2022/06/05 06:38:09;;;;;;;7.07;6.37;;;17.30;1.00;;;17.70;54.80;101513.91;4989668;28;20445;-69
2022/06/05 06:40:38;;;;;;;8.10;7.03;;;17.40;1.00;;;17.84;54.51;101519.16;5014101;28;20451;-70
2022/06/05 06:43:07;;;;;;;7.43;6.73;;;17.50;1.00;;;18.04;53.85;101514.19;5020636;28;20832;-71
2022/06/05 06:45:38;;;;;;;11.10;6.03;;;17.70;1.00;;;18.10;53.51;101516.00;5016789;28;20449;-70
2022/06/05 06:48:09;;;;;;;7.00;6.00;;;17.80;1.00;;;18.30;53.22;101519.19;5019223;28;20949;-70
2022/06/05 06:50:39;;;;;;;6.00;5.50;;;17.90;1.00;;;18.35;52.89;101516.56;5022539;28;20443;-71
2022/06/05 06:53:08;;;;;;;6.47;5.50;;;18.10;1.00;;;18.44;53.04;101512.44;5016281;28;20862;-71
2022/06/05 06:55:38;;;;;;;8.60;6.63;;;18.10;1.00;;;18.50;52.48;101511.44;5018475;28;20463;-71
2022/06/05 06:58:07;;;;;;;9.07;7.80;;;18.20;1.00;;;18.67;52.58;101511.59;5014221;28;20407;-70
2022/06/05 07:00:36;;;;;;;6.40;5.50;;;18.40;1.00;;;18.86;52.20;101510.38;5014172;28;20800;-69
2022/06/05 07:03:05;;;;;;;7.73;6.20;;;18.60;1.00;;;19.16;51.66;101515.66;5013967;28;20436;-70
2022/06/05 07:05:36;;;;;;;10.00;7.00;;;18.80;1.00;;;19.27;50.73;101508.41;5016322;28;20486;-69
2022/06/05 07:08:06;;;;;;;7.87;6.20;;;18.90;1.00;;;19.35;50.66;101514.38;5014446;28;20441;-70
2022/06/05 07:10:37;;;;;;;9.50;6.50;;;19.10;1.00;;;19.37;51.32;101506.72;5013841;28;20443;-69
2022/06/05 07:13:06;;;;;;;7.43;6.03;;;19.10;1.00;;;19.24;51.07;101508.94;5013520;28;20467;-71
2022/06/05 07:15:35;;;;;;;7.87;5.63;;;19.00;1.00;;;19.31;51.23;101499.47;5014290;28;20527;-71
2022/06/05 07:18:06;;;;;;;9.30;6.80;;;19.00;1.00;;;19.30;51.14;101500.56;5013707;28;20419;-70
2022/06/05 07:20:40;;;;;;;15.23;6.97;;;19.20;1.00;;;19.50;51.33;101495.50;5013802;28;20561;-68
2022/06/05 07:23:11;;;;;;;6.97;5.70;;;19.30;1.00;;;19.90;49.67;101497.25;5018146;28;20932;-70
2022/06/05 07:25:48;;;;;;;8.77;6.30;;;19.50;1.00;;;20.11;49.49;101499.25;5017721;28;20441;-71
2022/06/05 07:28:18;;;;;;;7.77;6.13;;;19.70;1.00;;;20.29;48.44;101492.66;5007420;28;20438;-71
2022/06/05 07:30:49;;;;;;;11.23;9.60;;;19.90;1.00;;;20.37;48.18;101498.59;5007673;28;20446;-72
2022/06/05 07:33:19;;;;;;;7.20;6.50;;;20.10;1.00;;;20.26;48.72;101491.25;5012523;28;20453;-71
2022/06/05 07:35:57;;;;;;;5.90;5.37;;;20.20;1.00;;;20.20;48.65;101478.50;5013355;28;20472;-70
2022/06/05 07:38:27;;;;;;;7.70;6.90;;;20.10;1.00;;;20.34;48.32;101482.59;5014387;28;20427;-70
2022/06/05 07:40:57;;;;;;;7.13;6.53;;;20.20;1.00;;;20.33;48.79;101472.69;5017716;28;20435;-70
2022/06/05 07:43:26;;;;;;;8.20;6.07;;;20.20;1.00;;;20.32;48.38;101468.31;5015258;28;20411;-69
2022/06/05 07:45:58;;;;;;;8.00;6.60;;;20.20;1.00;;;20.39;47.87;101462.59;5016591;28;20467;-71
2022/06/05 07:48:27;;;;;;;8.83;7.50;;;20.20;1.00;;;20.67;47.77;101459.69;5018983;28;20442;-70
2022/06/05 07:56:38;;;;;;;7.13;5.43;;;20.60;1.00;;;20.68;47.33;101450.34;5013240;28;20447;-72
2022/06/05 07:59:08;;;;;;;7.37;6.10;;;20.60;1.00;;;20.62;47.55;101445.06;5017049;28;20937;-69
2022/06/05 08:01:58;;;;;;;5.70;4.93;;;20.60;1.00;;;20.93;46.89;101452.59;5012602;28;20522;-71
2022/06/05 08:04:27;;;;;;;6.00;5.40;;;20.70;1.00;;;21.18;46.72;101449.31;5012766;28;20468;-72
2022/06/05 08:07:00;;;;;;;8.10;6.10;;;20.80;1.00;;;21.30;46.01;101446.44;5007048;28;20472;-70
2022/06/05 08:09:30;;;;;;;8.67;6.50;;;21.10;1.00;;;21.11;46.30;101448.66;5009975;28;20424;-70
2022/06/05 08:12:00;;;;;;;7.50;5.77;;;21.10;1.00;;;21.27;46.31;101441.41;5012963;28;20456;-70
2022/06/05 08:14:32;;;;;;;6.60;5.90;;;21.10;1.00;;;21.51;45.13;101451.00;5013021;28;20412;-71
2022/06/05 08:17:01;;;;;;;6.63;5.43;;;21.20;1.00;;;21.48;44.89;101440.53;5013009;28;20535;-71
2022/06/05 08:19:37;;;;;;;7.40;5.30;;;21.20;1.00;;;21.89;44.59;101439.78;5012167;28;20426;-71
2022/06/05 08:22:11;;;;;;;6.60;5.60;;;21.50;1.00;;;21.89;44.78;101434.25;5008960;28;20455;-71
2022/06/05 08:24:40;;;;;;;6.07;4.73;;;21.70;1.00;;;21.93;44.91;101438.19;5012880;28;20408;-71
2022/06/05 08:27:23;;;;;;;6.43;4.63;;;21.80;1.00;;;21.79;44.77;101452.63;5012751;28;20439;-71
2022/06/05 08:29:56;;;;;;;6.47;5.87;;;21.70;1.00;;;21.59;45.05;101439.53;5012408;28;20448;-71
2022/06/05 08:32:28;;;;;;;5.53;4.43;;;21.60;1.00;;;21.79;44.37;101434.19;5012421;28;20460;-72
2022/06/05 08:34:57;;;;;;;7.00;6.30;;;21.60;1.00;;;22.09;44.23;101431.69;5006606;28;20918;-71
2022/06/05 08:43:44;;;;;;;7.60;5.37;;;22.10;1.00;;;22.44;42.02;101408.19;5004819;28;20448;-70
2022/06/05 08:46:25;;;;;;;7.00;6.20;;;22.10;1.00;;;22.59;41.62;101405.47;4931835;29;20448;-70
2022/06/05 08:49:01;;;;;;;5.30;4.90;;;22.30;1.00;;;22.52;41.04;101404.88;5003821;28;20461;-69
2022/06/05 08:51:47;;;;;;;14.57;13.20;;;22.30;1.00;;;22.67;41.17;101406.88;5013853;28;20435;-70
2022/06/05 08:54:27;;;;;;;4.40;3.97;;;22.40;1.00;;;22.81;39.45;101419.94;5016549;28;20440;-71
2022/06/05 08:57:04;;;;;;;7.80;7.10;;;22.60;1.00;;;22.60;38.34;101407.16;5016929;28;21100;-71
2022/06/05 08:59:46;;;;;;;5.40;4.90;;;22.60;1.00;;;22.62;39.99;101404.94;5020339;28;20419;-71
2022/06/05 09:02:34;;;;;;;5.83;4.40;;;22.50;1.00;;;23.07;39.36;101407.03;5020576;28;20547;-71
2022/06/05 09:05:09;;;;;;;5.80;4.83;;;22.70;1.00;;;23.18;38.07;101402.38;5019873;28;20474;-71
2022/06/05 09:07:45;;;;;;;6.10;5.50;;;22.90;1.00;;;23.26;37.87;101404.59;5020559;28;20410;-71
2022/06/05 09:10:26;;;;;;;4.43;3.40;;;23.00;1.00;;;23.17;37.26;101403.47;5012769;28;20460;-71
2022/06/05 09:13:03;;;;;;;4.60;4.20;;;23.00;1.00;;;23.40;37.67;101398.25;5006426;28;20490;-69
2022/06/05 09:15:39;;;;;;;5.13;4.50;;;23.10;1.00;;;23.41;38.28;101396.31;5011349;28;20446;-70
2022/06/05 09:18:16;;;;;;;4.57;4.17;;;23.20;1.00;;;23.76;36.03;101392.75;5013216;28;20501;-69
2022/06/05 09:20:53;;;;;;;5.43;3.90;;;23.40;1.00;;;24.20;35.54;101395.75;5010865;28;20479;-71
2022/06/05 09:23:52;;;;;;;8.27;7.47;;;23.80;1.00;;;23.97;35.30;101393.53;5012730;28;20501;-70
2022/06/05 09:26:43;;;;;;;5.17;3.80;;;23.90;1.00;;;24.00;35.36;101381.94;4990956;28;21092;-71
2022/06/05 09:29:35;;;;;;;4.83;3.40;;;23.70;1.00;;;24.31;35.69;101378.00;5012110;28;20434;-72
2022/06/05 09:32:44;;;;;;;4.37;3.83;;;23.90;1.00;;;24.43;35.41;101386.81;5013466;28;20443;-70
2022/06/05 09:35:25;;;;;;;5.03;4.40;;;24.10;1.00;;;24.57;36.43;101371.25;5006937;28;20439;-70
2022/06/05 09:38:03;;;;;;;5.03;3.80;;;24.20;1.00;;;24.63;35.73;101370.13;5011190;28;20841;-70
2022/06/05 09:40:45;;;;;;;4.73;4.13;;;24.40;1.00;;;24.36;36.41;101364.16;5011120;28;20460;-69
2022/06/05 09:43:44;;;;;;;4.90;4.40;;;24.20;1.00;;;24.26;36.91;101375.25;5009000;28;20436;-71
2022/06/05 09:46:42;;;;;;;5.87;4.60;;;24.10;1.00;;;24.29;36.53;101369.19;5013541;28;20494;-70
2022/06/05 09:49:19;;;;;;;4.93;4.53;;;24.10;1.00;;;24.64;36.64;101369.00;5014814;28;20512;-71
2022/06/05 09:51:48;;;;;;;4.20;3.80;;;24.20;1.00;;;24.76;36.42;101363.13;5014320;28;20449;-71
2022/06/05 09:54:25;;;;;;;5.33;4.83;;;24.40;1.00;;;24.93;36.30;101357.28;5016435;28;20431;-71
2022/06/05 10:00:14;;;;;;;5.40;4.93;;;24.50;1.00;;;25.27;36.32;101360.88;5008591;28;20419;-70
2022/06/05 10:02:50;;;;;;;5.70;4.60;;;24.80;1.00;;;25.44;35.70;101366.84;5012762;28;20813;-71
2022/06/05 10:05:30;;;;;;;5.90;4.47;;;25.00;1.00;;;25.57;35.25;101362.59;5010997;28;20449;-71
2022/06/05 10:08:11;;;;;;;8.20;5.60;;;25.20;1.00;;;25.76;35.40;101359.91;5010872;28;20444;-70
2022/06/05 10:10:45;;;;;;;5.40;4.90;;;25.30;1.00;;;25.98;35.08;101356.66;5011928;28;20469;-71
2022/06/05 10:13:32;;;;;;;5.20;4.73;;;25.50;1.00;;;25.84;34.57;101359.31;5015579;28;20479;-69
2022/06/05 10:16:10;;;;;;;4.93;4.40;;;25.50;1.00;;;25.64;34.58;101351.19;5020582;28;20451;-72
2022/06/05 10:18:51;;;;;;;4.83;4.20;;;25.40;1.00;;;25.57;34.90;101345.13;5014758;28;20471;-72
2022/06/05 10:21:24;;;;;;;6.43;5.03;;;25.40;1.00;;;25.72;35.03;101336.69;5015000;28;20475;-71
2022/06/05 10:24:08;;;;;;;5.53;5.13;;;25.40;1.00;;;26.17;35.20;101338.97;5014395;28;20451;-71
2022/06/05 10:26:46;;;;;;;5.30;4.70;;;25.70;1.00;;;26.54;33.63;101338.25;5014943;28;20532;-72
2022/06/05 10:29:24;;;;;;;5.93;5.07;;;26.10;1.00;;;26.52;33.66;101334.13;5014321;28;20929;-71
2022/06/05 10:32:05;;;;;;;5.20;4.30;;;26.20;1.00;;;26.57;33.18;101334.06;5013471;28;20495;-71
2022/06/05 10:34:46;;;;;;;6.50;5.10;;;26.20;1.00;;;26.39;33.29;101324.56;5016606;28;20914;-74
2022/06/05 10:37:25;;;;;;;4.57;4.17;;;26.10;1.00;;;26.37;33.01;101316.56;5011858;28;20456;-76
2022/06/05 10:40:13;;;;;;;5.10;4.40;;;26.20;1.00;;;26.00;33.99;101305.31;5015177;28;20444;-74
2022/06/05 10:42:55;;;;;;;5.03;4.53;;;26.00;1.00;;;26.27;34.21;101311.13;5015846;28;20463;-74
2022/06/05 10:45:41;;;;;;;5.17;4.67;;;25.90;1.00;;;26.13;34.05;101303.78;5013054;28;20439;-74
2022/06/05 10:48:43;;;;;;;7.40;4.97;;;26.00;1.00;;;26.27;33.96;101300.03;5021742;28;20424;-73
2022/06/05 10:51:25;;;;;;;4.90;4.40;;;25.90;1.00;;;26.60;34.15;101297.38;5018582;28;20490;-74
2022/06/05 10:54:06;;;;;;;8.37;5.20;;;26.20;1.00;;;27.18;32.95;101293.16;5013609;28;20444;-71
2022/06/05 10:56:48;;;;;;;5.70;5.20;;;26.60;1.00;;;27.15;32.98;101304.03;5015977;28;20533;-70
2022/06/05 10:59:31;;;;;;;5.00;4.60;;;26.80;1.00;;;27.14;33.49;101291.28;5014409;28;20458;-71
2022/06/05 11:02:29;;;;;;;5.47;4.83;;;26.90;1.00;;;27.19;33.57;101280.91;5013191;28;20575;-72
2022/06/05 11:05:23;;;;;;;6.57;5.97;;;27.00;1.00;;;26.96;34.52;101284.63;5011952;28;20441;-72
2022/06/05 11:08:08;;;;;;;5.70;5.20;;;26.70;1.00;;;27.51;34.29;101268.13;5012778;28;20472;-72
2022/06/05 11:13:56;;;;;;;6.07;5.40;;;27.00;1.00;;;27.31;34.82;101274.03;5013012;28;20871;-70